sensor_id;sensor_type;location;lat;lon;timestamp;temperature;humidity
11615;DHT22;5863;52.832;4.758;2023-04-01T00:01:29;10.80;99.90
11615;DHT22;5863;52.832;4.758;2023-04-01T00:03:55;10.80;99.90
11615;DHT22;5863;52.832;4.758;2023-04-01T00:06:23;10.90;99.90
11615;DHT22;5863;52.832;4.758;2023-04-01T00:08:50;10.80;99.90
11615;DHT22;5863;52.832;4.758;2023-04-01T00:11:18;10.80;99.90
11615;DHT22;5863;52.832;4.758;2023-04-01T00:13:44;10.90;99.90
11615;DHT22;5863;52.832;4.758;2023-04-01T00:16:13;10.90;99.90
11615;DHT22;5863;52.832;4.758;2023-04-01T00:18:40;11.00;99.90
11615;DHT22;5863;52.832;4.758;2023-04-01T00:21:07;10.90;99.90
11615;DHT22;5863;52.832;4.758;2023-04-01T00:23:34;10.90;99.90
11615;DHT22;5863;52.832;4.758;2023-04-01T00:26:02;10.80;99.90
11615;DHT22;5863;52.832;4.758;2023-04-01T00:28:29;10.80;99.90
11615;DHT22;5863;52.832;4.758;2023-04-01T00:30:56;10.80;99.90
11615;DHT22;5863;52.832;4.758;2023-04-01T00:33:24;10.90;99.90
11615;DHT22;5863;52.832;4.758;2023-04-01T00:35:53;10.90;99.90
11615;DHT22;5863;52.832;4.758;2023-04-01T00:38:20;10.90;99.90
11615;DHT22;5863;52.832;4.758;2023-04-01T00:40:47;10.90;99.90
11615;DHT22;5863;52.832;4.758;2023-04-01T00:43:16;10.80;99.90
11615;DHT22;5863;52.832;4.758;2023-04-01T00:45:46;10.80;99.90
11615;DHT22;5863;52.832;4.758;2023-04-01T00:48:16;10.80;99.90
11615;DHT22;5863;52.832;4.758;2023-04-01T00:50:48;10.90;99.90
11615;DHT22;5863;52.832;4.758;2023-04-01T00:53:16;10.90;99.90
11615;DHT22;5863;52.832;4.758;2023-04-01T00:55:50;10.80;99.90
11615;DHT22;5863;52.832;4.758;2023-04-01T00:58:21;10.90;99.90
11615;DHT22;5863;52.832;4.758;2023-04-01T01:00:49;10.90;99.90
11615;DHT22;5863;52.832;4.758;2023-04-01T01:03:16;10.80;99.90
11615;DHT22;5863;52.832;4.758;2023-04-01T01:06:04;10.90;99.90
11615;DHT22;5863;52.832;4.758;2023-04-01T01:08:44;10.90;99.90
11615;DHT22;5863;52.832;4.758;2023-04-01T01:11:14;10.90;99.90
11615;DHT22;5863;52.832;4.758;2023-04-01T01:13:48;10.90;99.90
11615;DHT22;5863;52.832;4.758;2023-04-01T01:16:25;10.90;99.90
11615;DHT22;5863;52.832;4.758;2023-04-01T01:18:55;10.80;99.90
11615;DHT22;5863;52.832;4.758;2023-04-01T01:21:47;10.80;99.90
11615;DHT22;5863;52.832;4.758;2023-04-01T01:24:28;10.80;99.90
11615;DHT22;5863;52.832;4.758;2023-04-01T01:27:04;10.80;99.90
11615;DHT22;5863;52.832;4.758;2023-04-01T01:29:45;10.80;99.90
11615;DHT22;5863;52.832;4.758;2023-04-01T01:32:20;10.80;99.90
11615;DHT22;5863;52.832;4.758;2023-04-01T01:35:02;10.80;99.90
11615;DHT22;5863;52.832;4.758;2023-04-01T01:37:31;10.80;99.90
11615;DHT22;5863;52.832;4.758;2023-04-01T01:40:02;10.80;99.90
11615;DHT22;5863;52.832;4.758;2023-04-01T01:42:31;10.70;99.90
11615;DHT22;5863;52.832;4.758;2023-04-01T01:45:00;10.70;99.90
11615;DHT22;5863;52.832;4.758;2023-04-01T01:47:28;10.80;99.90
11615;DHT22;5863;52.832;4.758;2023-04-01T01:49:56;10.80;99.90
11615;DHT22;5863;52.832;4.758;2023-04-01T01:52:27;10.80;99.90
11615;DHT22;5863;52.832;4.758;2023-04-01T01:54:56;10.80;99.90
11615;DHT22;5863;52.832;4.758;2023-04-01T01:57:26;10.90;99.90
11615;DHT22;5863;52.832;4.758;2023-04-01T01:59:56;10.80;99.90
11615;DHT22;5863;52.832;4.758;2023-04-01T02:02:25;10.80;99.90
11615;DHT22;5863;52.832;4.758;2023-04-01T02:04:53;10.80;99.90
11615;DHT22;5863;52.832;4.758;2023-04-01T02:07:22;10.80;99.90
11615;DHT22;5863;52.832;4.758;2023-04-01T02:09:52;10.80;99.90
11615;DHT22;5863;52.832;4.758;2023-04-01T02:12:19;10.80;99.90
11615;DHT22;5863;52.832;4.758;2023-04-01T02:14:51;10.80;99.90
11615;DHT22;5863;52.832;4.758;2023-04-01T02:17:20;10.80;99.90
11615;DHT22;5863;52.832;4.758;2023-04-01T02:19:49;10.70;99.90
11615;DHT22;5863;52.832;4.758;2023-04-01T02:22:21;10.70;99.90
11615;DHT22;5863;52.832;4.758;2023-04-01T02:24:49;10.80;99.90
11615;DHT22;5863;52.832;4.758;2023-04-01T02:27:18;10.80;99.90
11615;DHT22;5863;52.832;4.758;2023-04-01T02:29:46;10.80;99.90
11615;DHT22;5863;52.832;4.758;2023-04-01T02:32:13;10.80;99.90
11615;DHT22;5863;52.832;4.758;2023-04-01T02:34:41;10.70;99.90
11615;DHT22;5863;52.832;4.758;2023-04-01T02:37:08;10.70;99.90
11615;DHT22;5863;52.832;4.758;2023-04-01T02:39:35;10.70;99.90
11615;DHT22;5863;52.832;4.758;2023-04-01T02:42:02;10.70;99.90
11615;DHT22;5863;52.832;4.758;2023-04-01T02:44:30;10.70;99.90
11615;DHT22;5863;52.832;4.758;2023-04-01T02:46:57;10.70;99.90
11615;DHT22;5863;52.832;4.758;2023-04-01T02:49:23;10.70;99.90
11615;DHT22;5863;52.832;4.758;2023-04-01T02:51:50;10.70;99.90
11615;DHT22;5863;52.832;4.758;2023-04-01T02:54:17;10.70;99.90
11615;DHT22;5863;52.832;4.758;2023-04-01T02:56:44;10.70;99.90
11615;DHT22;5863;52.832;4.758;2023-04-01T02:59:11;10.70;99.90
11615;DHT22;5863;52.832;4.758;2023-04-01T03:01:40;10.70;99.90
11615;DHT22;5863;52.832;4.758;2023-04-01T03:04:06;10.70;99.90
11615;DHT22;5863;52.832;4.758;2023-04-01T03:06:33;10.70;99.90
11615;DHT22;5863;52.832;4.758;2023-04-01T03:09:00;10.60;99.90
11615;DHT22;5863;52.832;4.758;2023-04-01T03:11:27;10.70;99.90
11615;DHT22;5863;52.832;4.758;2023-04-01T03:13:53;10.70;99.90
11615;DHT22;5863;52.832;4.758;2023-04-01T03:16:20;10.70;99.90
11615;DHT22;5863;52.832;4.758;2023-04-01T03:18:48;10.60;99.90
11615;DHT22;5863;52.832;4.758;2023-04-01T03:21:19;10.60;99.90
11615;DHT22;5863;52.832;4.758;2023-04-01T03:23:45;10.70;99.90
11615;DHT22;5863;52.832;4.758;2023-04-01T03:26:12;10.60;99.90
11615;DHT22;5863;52.832;4.758;2023-04-01T03:28:39;10.50;99.90
11615;DHT22;5863;52.832;4.758;2023-04-01T03:31:06;10.60;99.90
11615;DHT22;5863;52.832;4.758;2023-04-01T03:33:33;10.60;99.90
11615;DHT22;5863;52.832;4.758;2023-04-01T03:36:01;10.60;99.90
11615;DHT22;5863;52.832;4.758;2023-04-01T03:38:28;10.60;99.90
11615;DHT22;5863;52.832;4.758;2023-04-01T03:40:55;10.60;99.90
11615;DHT22;5863;52.832;4.758;2023-04-01T03:43:22;10.60;99.90
11615;DHT22;5863;52.832;4.758;2023-04-01T03:45:50;10.60;99.90
11615;DHT22;5863;52.832;4.758;2023-04-01T03:48:18;10.70;99.90
11615;DHT22;5863;52.832;4.758;2023-04-01T03:50:46;10.70;99.90
11615;DHT22;5863;52.832;4.758;2023-04-01T03:53:14;10.60;99.90
11615;DHT22;5863;52.832;4.758;2023-04-01T03:55:41;10.60;99.90
11615;DHT22;5863;52.832;4.758;2023-04-01T03:58:08;10.60;99.90
11615;DHT22;5863;52.832;4.758;2023-04-01T04:00:35;10.60;99.90
11615;DHT22;5863;52.832;4.758;2023-04-01T04:03:03;10.60;99.90
11615;DHT22;5863;52.832;4.758;2023-04-01T04:05:29;10.60;99.90
11615;DHT22;5863;52.832;4.758;2023-04-01T04:07:56;10.40;99.90
11615;DHT22;5863;52.832;4.758;2023-04-01T04:10:24;10.60;99.90
11615;DHT22;5863;52.832;4.758;2023-04-01T04:12:51;10.60;99.90
11615;DHT22;5863;52.832;4.758;2023-04-01T04:15:18;10.60;99.90
11615;DHT22;5863;52.832;4.758;2023-04-01T04:17:45;10.60;99.90
11615;DHT22;5863;52.832;4.758;2023-04-01T04:20:12;10.50;99.90
11615;DHT22;5863;52.832;4.758;2023-04-01T04:22:39;10.50;99.90
11615;DHT22;5863;52.832;4.758;2023-04-01T04:25:06;10.50;99.90
11615;DHT22;5863;52.832;4.758;2023-04-01T04:27:35;10.50;99.90
11615;DHT22;5863;52.832;4.758;2023-04-01T04:30:02;10.50;99.90
11615;DHT22;5863;52.832;4.758;2023-04-01T04:32:30;10.50;99.90
11615;DHT22;5863;52.832;4.758;2023-04-01T04:34:57;10.50;99.90
11615;DHT22;5863;52.832;4.758;2023-04-01T04:37:24;10.40;99.90
11615;DHT22;5863;52.832;4.758;2023-04-01T04:39:51;10.50;99.90
11615;DHT22;5863;52.832;4.758;2023-04-01T04:42:17;10.50;99.90
11615;DHT22;5863;52.832;4.758;2023-04-01T04:44:45;10.40;99.90
11615;DHT22;5863;52.832;4.758;2023-04-01T04:47:12;10.40;99.90
11615;DHT22;5863;52.832;4.758;2023-04-01T04:49:39;10.40;99.90
11615;DHT22;5863;52.832;4.758;2023-04-01T04:52:06;10.40;99.90
11615;DHT22;5863;52.832;4.758;2023-04-01T04:54:33;10.30;99.90
11615;DHT22;5863;52.832;4.758;2023-04-01T04:56:59;10.40;99.90
11615;DHT22;5863;52.832;4.758;2023-04-01T04:59:26;10.30;99.90
11615;DHT22;5863;52.832;4.758;2023-04-01T05:01:54;10.30;99.90
11615;DHT22;5863;52.832;4.758;2023-04-01T05:04:21;10.30;99.90
11615;DHT22;5863;52.832;4.758;2023-04-01T05:06:47;10.30;99.90
11615;DHT22;5863;52.832;4.758;2023-04-01T05:09:15;10.20;99.90
11615;DHT22;5863;52.832;4.758;2023-04-01T05:11:41;10.30;99.90
11615;DHT22;5863;52.832;4.758;2023-04-01T05:14:12;10.30;99.90
11615;DHT22;5863;52.832;4.758;2023-04-01T05:16:40;10.30;99.90
11615;DHT22;5863;52.832;4.758;2023-04-01T05:19:08;10.30;99.90
11615;DHT22;5863;52.832;4.758;2023-04-01T05:21:35;10.30;99.90
11615;DHT22;5863;52.832;4.758;2023-04-01T05:24:02;10.30;99.90
11615;DHT22;5863;52.832;4.758;2023-04-01T05:26:29;10.30;99.90
11615;DHT22;5863;52.832;4.758;2023-04-01T05:28:55;10.40;99.90
11615;DHT22;5863;52.832;4.758;2023-04-01T05:31:24;10.30;99.90
11615;DHT22;5863;52.832;4.758;2023-04-01T05:33:51;10.30;99.90
11615;DHT22;5863;52.832;4.758;2023-04-01T05:36:20;10.30;99.90
11615;DHT22;5863;52.832;4.758;2023-04-01T05:38:47;10.30;99.90
11615;DHT22;5863;52.832;4.758;2023-04-01T05:41:14;10.30;99.90
11615;DHT22;5863;52.832;4.758;2023-04-01T05:43:42;10.50;99.90
11615;DHT22;5863;52.832;4.758;2023-04-01T05:46:09;10.30;99.90
11615;DHT22;5863;52.832;4.758;2023-04-01T05:48:36;10.40;99.90
11615;DHT22;5863;52.832;4.758;2023-04-01T05:51:04;10.40;99.90
11615;DHT22;5863;52.832;4.758;2023-04-01T05:53:32;10.30;99.90
11615;DHT22;5863;52.832;4.758;2023-04-01T05:56:02;10.30;99.90
11615;DHT22;5863;52.832;4.758;2023-04-01T05:58:29;10.30;99.90
11615;DHT22;5863;52.832;4.758;2023-04-01T06:01:01;10.30;99.90
11615;DHT22;5863;52.832;4.758;2023-04-01T06:03:28;10.30;99.90
11615;DHT22;5863;52.832;4.758;2023-04-01T06:05:54;10.20;99.90
11615;DHT22;5863;52.832;4.758;2023-04-01T06:08:21;10.30;99.90
11615;DHT22;5863;52.832;4.758;2023-04-01T06:11:07;10.30;99.90
11615;DHT22;5863;52.832;4.758;2023-04-01T06:13:53;10.30;99.90
11615;DHT22;5863;52.832;4.758;2023-04-01T06:16:33;10.30;99.90
11615;DHT22;5863;52.832;4.758;2023-04-01T06:19:20;10.30;99.90
11615;DHT22;5863;52.832;4.758;2023-04-01T06:22:16;10.30;99.90
11615;DHT22;5863;52.832;4.758;2023-04-01T06:25:10;10.30;99.90
11615;DHT22;5863;52.832;4.758;2023-04-01T06:27:51;10.30;99.90
11615;DHT22;5863;52.832;4.758;2023-04-01T06:30:35;10.30;99.90
11615;DHT22;5863;52.832;4.758;2023-04-01T06:33:23;10.30;99.90
11615;DHT22;5863;52.832;4.758;2023-04-01T06:36:15;10.40;99.90
11615;DHT22;5863;52.832;4.758;2023-04-01T06:38:59;10.40;99.90
11615;DHT22;5863;52.832;4.758;2023-04-01T06:44:29;10.40;99.90
11615;DHT22;5863;52.832;4.758;2023-04-01T06:47:03;10.40;99.90
11615;DHT22;5863;52.832;4.758;2023-04-01T06:49:44;10.40;99.90
11615;DHT22;5863;52.832;4.758;2023-04-01T06:52:22;10.40;99.90
11615;DHT22;5863;52.832;4.758;2023-04-01T06:54:51;10.50;99.90
11615;DHT22;5863;52.832;4.758;2023-04-01T06:57:23;10.40;99.90
11615;DHT22;5863;52.832;4.758;2023-04-01T06:59:56;10.40;99.90
11615;DHT22;5863;52.832;4.758;2023-04-01T07:02:28;10.40;99.90
11615;DHT22;5863;52.832;4.758;2023-04-01T07:04:59;10.40;99.90
11615;DHT22;5863;52.832;4.758;2023-04-01T07:07:33;10.50;99.90
11615;DHT22;5863;52.832;4.758;2023-04-01T07:10:05;10.40;99.90
11615;DHT22;5863;52.832;4.758;2023-04-01T07:12:40;10.50;99.90
11615;DHT22;5863;52.832;4.758;2023-04-01T07:15:17;10.50;99.90
11615;DHT22;5863;52.832;4.758;2023-04-01T07:17:46;10.50;99.90
11615;DHT22;5863;52.832;4.758;2023-04-01T07:20:18;10.50;99.90
11615;DHT22;5863;52.832;4.758;2023-04-01T07:22:48;10.50;99.90
11615;DHT22;5863;52.832;4.758;2023-04-01T07:25:17;10.50;99.90
11615;DHT22;5863;52.832;4.758;2023-04-01T07:27:45;10.50;99.90
11615;DHT22;5863;52.832;4.758;2023-04-01T07:30:19;10.50;99.90
11615;DHT22;5863;52.832;4.758;2023-04-01T07:32:50;10.50;99.90
11615;DHT22;5863;52.832;4.758;2023-04-01T07:35:24;10.60;99.90
11615;DHT22;5863;52.832;4.758;2023-04-01T07:38:04;10.60;99.90
11615;DHT22;5863;52.832;4.758;2023-04-01T07:40:40;10.60;99.90
11615;DHT22;5863;52.832;4.758;2023-04-01T07:43:36;10.60;99.90
11615;DHT22;5863;52.832;4.758;2023-04-01T07:46:12;10.60;99.90
11615;DHT22;5863;52.832;4.758;2023-04-01T07:48:47;10.60;99.90
11615;DHT22;5863;52.832;4.758;2023-04-01T07:51:18;10.60;99.90
11615;DHT22;5863;52.832;4.758;2023-04-01T07:53:53;10.70;99.90
11615;DHT22;5863;52.832;4.758;2023-04-01T07:56:30;10.70;99.90
11615;DHT22;5863;52.832;4.758;2023-04-01T07:59:03;10.70;99.90
11615;DHT22;5863;52.832;4.758;2023-04-01T08:01:40;10.70;99.90
11615;DHT22;5863;52.832;4.758;2023-04-01T08:04:23;10.70;99.90
11615;DHT22;5863;52.832;4.758;2023-04-01T08:06:56;10.70;99.90
11615;DHT22;5863;52.832;4.758;2023-04-01T08:09:31;10.70;99.90
11615;DHT22;5863;52.832;4.758;2023-04-01T08:12:07;10.70;99.90
11615;DHT22;5863;52.832;4.758;2023-04-01T08:14:44;10.70;99.90
11615;DHT22;5863;52.832;4.758;2023-04-01T08:17:19;10.70;99.90
11615;DHT22;5863;52.832;4.758;2023-04-01T08:20:00;10.70;99.90
11615;DHT22;5863;52.832;4.758;2023-04-01T08:22:32;10.70;99.90
11615;DHT22;5863;52.832;4.758;2023-04-01T08:25:02;10.70;99.90
11615;DHT22;5863;52.832;4.758;2023-04-01T08:27:36;10.70;99.90
11615;DHT22;5863;52.832;4.758;2023-04-01T08:30:06;10.70;99.90
11615;DHT22;5863;52.832;4.758;2023-04-01T08:32:45;10.70;99.90
11615;DHT22;5863;52.832;4.758;2023-04-01T08:35:20;10.70;99.90
11615;DHT22;5863;52.832;4.758;2023-04-01T08:37:51;10.70;99.90
11615;DHT22;5863;52.832;4.758;2023-04-01T08:40:39;10.70;99.90
11615;DHT22;5863;52.832;4.758;2023-04-01T08:43:12;10.70;99.90
11615;DHT22;5863;52.832;4.758;2023-04-01T08:45:53;10.70;99.90
11615;DHT22;5863;52.832;4.758;2023-04-01T08:51:57;10.70;99.90
11615;DHT22;5863;52.832;4.758;2023-04-01T08:54:46;10.70;99.90
11615;DHT22;5863;52.832;4.758;2023-04-01T08:57:21;10.70;99.90
11615;DHT22;5863;52.832;4.758;2023-04-01T08:59:57;10.70;99.90
11615;DHT22;5863;52.832;4.758;2023-04-01T09:02:49;10.70;99.90
11615;DHT22;5863;52.832;4.758;2023-04-01T09:08:21;10.70;99.90
11615;DHT22;5863;52.832;4.758;2023-04-01T09:11:08;10.70;99.90
11615;DHT22;5863;52.832;4.758;2023-04-01T09:16:54;10.80;99.90
11615;DHT22;5863;52.832;4.758;2023-04-01T09:19:33;10.80;99.90
11615;DHT22;5863;52.832;4.758;2023-04-01T09:22:21;10.80;99.90
11615;DHT22;5863;52.832;4.758;2023-04-01T09:25:22;10.80;99.90
11615;DHT22;5863;52.832;4.758;2023-04-01T09:27:56;10.80;99.90
11615;DHT22;5863;52.832;4.758;2023-04-01T09:30:48;10.80;99.90
11615;DHT22;5863;52.832;4.758;2023-04-01T09:36:38;10.90;99.90
11615;DHT22;5863;52.832;4.758;2023-04-01T09:39:24;10.90;99.90
11615;DHT22;5863;52.832;4.758;2023-04-01T09:42:03;10.90;99.90
11615;DHT22;5863;52.832;4.758;2023-04-01T09:44:34;10.90;99.90
11615;DHT22;5863;52.832;4.758;2023-04-01T09:47:11;10.80;99.90
11615;DHT22;5863;52.832;4.758;2023-04-01T09:49:55;10.90;99.90
11615;DHT22;5863;52.832;4.758;2023-04-01T09:52:31;10.90;99.90
11615;DHT22;5863;52.832;4.758;2023-04-01T09:55:17;10.90;99.90
11615;DHT22;5863;52.832;4.758;2023-04-01T09:58:18;11.00;99.90
11615;DHT22;5863;52.832;4.758;2023-04-01T10:01:01;11.00;99.90
11615;DHT22;5863;52.832;4.758;2023-04-01T10:04:02;11.00;99.90
11615;DHT22;5863;52.832;4.758;2023-04-01T10:06:57;11.00;99.90
11615;DHT22;5863;52.832;4.758;2023-04-01T10:09:57;11.10;99.90
11615;DHT22;5863;52.832;4.758;2023-04-01T10:12:56;11.10;99.90
11615;DHT22;5863;52.832;4.758;2023-04-01T10:24:51;11.30;99.90
11615;DHT22;5863;52.832;4.758;2023-04-01T10:27:48;11.40;99.90
11615;DHT22;5863;52.832;4.758;2023-04-01T10:34:07;11.40;99.90
11615;DHT22;5863;52.832;4.758;2023-04-01T10:36:52;11.40;99.90
11615;DHT22;5863;52.832;4.758;2023-04-01T10:43:01;11.50;99.90
11615;DHT22;5863;52.832;4.758;2023-04-01T10:51:25;11.40;99.90
11615;DHT22;5863;52.832;4.758;2023-04-01T10:54:21;11.40;99.90
11615;DHT22;5863;52.832;4.758;2023-04-01T10:56:59;11.30;99.90
11615;DHT22;5863;52.832;4.758;2023-04-01T11:00:08;11.30;99.90
11615;DHT22;5863;52.832;4.758;2023-04-01T11:03:12;11.40;99.90
11615;DHT22;5863;52.832;4.758;2023-04-01T11:06:42;11.60;99.90
11615;DHT22;5863;52.832;4.758;2023-04-01T11:09:43;11.70;99.90
11615;DHT22;5863;52.832;4.758;2023-04-01T11:15:58;11.80;99.90
11615;DHT22;5863;52.832;4.758;2023-04-01T11:24:49;12.00;99.90
11615;DHT22;5863;52.832;4.758;2023-04-01T11:27:27;12.00;99.90
11615;DHT22;5863;52.832;4.758;2023-04-01T11:30:19;12.00;99.90
11615;DHT22;5863;52.832;4.758;2023-04-01T11:32:54;12.00;99.90
11615;DHT22;5863;52.832;4.758;2023-04-01T11:35:34;12.00;99.90
11615;DHT22;5863;52.832;4.758;2023-04-01T11:38:23;12.00;99.90
11615;DHT22;5863;52.832;4.758;2023-04-01T11:40:59;11.90;99.90
11615;DHT22;5863;52.832;4.758;2023-04-01T11:43:34;11.90;99.90
11615;DHT22;5863;52.832;4.758;2023-04-01T11:46:07;11.90;99.90
11615;DHT22;5863;52.832;4.758;2023-04-01T11:48:58;11.80;99.90
11615;DHT22;5863;52.832;4.758;2023-04-01T11:51:48;11.80;99.90
11615;DHT22;5863;52.832;4.758;2023-04-01T11:54:40;11.80;99.90
11615;DHT22;5863;52.832;4.758;2023-04-01T11:57:30;11.80;99.90
11615;DHT22;5863;52.832;4.758;2023-04-01T12:00:24;11.80;99.90
11615;DHT22;5863;52.832;4.758;2023-04-01T12:03:10;11.80;99.90
11615;DHT22;5863;52.832;4.758;2023-04-01T12:05:47;11.90;99.90
11615;DHT22;5863;52.832;4.758;2023-04-01T12:08:27;12.00;99.90
11615;DHT22;5863;52.832;4.758;2023-04-01T12:11:00;11.90;99.90
11615;DHT22;5863;52.832;4.758;2023-04-01T12:13:40;12.00;99.90
11615;DHT22;5863;52.832;4.758;2023-04-01T12:16:25;12.00;99.90
11615;DHT22;5863;52.832;4.758;2023-04-01T12:18:59;11.90;99.90
11615;DHT22;5863;52.832;4.758;2023-04-01T12:21:34;11.90;99.90
11615;DHT22;5863;52.832;4.758;2023-04-01T12:24:33;11.80;99.90
11615;DHT22;5863;52.832;4.758;2023-04-01T12:27:27;11.80;99.90
11615;DHT22;5863;52.832;4.758;2023-04-01T12:30:14;11.80;99.90
11615;DHT22;5863;52.832;4.758;2023-04-01T12:32:47;11.90;99.90
11615;DHT22;5863;52.832;4.758;2023-04-01T12:35:21;11.80;99.90
11615;DHT22;5863;52.832;4.758;2023-04-01T12:37:58;11.70;99.90
11615;DHT22;5863;52.832;4.758;2023-04-01T12:40:39;11.70;99.90
11615;DHT22;5863;52.832;4.758;2023-04-01T12:43:32;11.70;99.90
11615;DHT22;5863;52.832;4.758;2023-04-01T12:46:11;11.70;99.90
11615;DHT22;5863;52.832;4.758;2023-04-01T12:49:06;11.70;99.90
11615;DHT22;5863;52.832;4.758;2023-04-01T12:52:00;11.70;99.90
11615;DHT22;5863;52.832;4.758;2023-04-01T13:00:55;11.50;99.90
11615;DHT22;5863;52.832;4.758;2023-04-01T13:09:31;11.30;99.90
11615;DHT22;5863;52.832;4.758;2023-04-01T13:12:16;11.20;99.90
11615;DHT22;5863;52.832;4.758;2023-04-01T13:17:53;11.20;99.90
11615;DHT22;5863;52.832;4.758;2023-04-01T13:20:36;11.10;99.90
11615;DHT22;5863;52.832;4.758;2023-04-01T13:23:14;11.10;99.90
11615;DHT22;5863;52.832;4.758;2023-04-01T13:25:49;11.00;99.90
11615;DHT22;5863;52.832;4.758;2023-04-01T13:28:21;11.10;99.90
11615;DHT22;5863;52.832;4.758;2023-04-01T13:30:57;11.00;99.90
11615;DHT22;5863;52.832;4.758;2023-04-01T13:33:32;11.00;99.90
11615;DHT22;5863;52.832;4.758;2023-04-01T13:36:13;11.00;99.90
11615;DHT22;5863;52.832;4.758;2023-04-01T13:39:07;11.00;99.90
11615;DHT22;5863;52.832;4.758;2023-04-01T13:42:00;11.00;99.90
11615;DHT22;5863;52.832;4.758;2023-04-01T13:44:32;11.00;99.90
11615;DHT22;5863;52.832;4.758;2023-04-01T13:47:19;11.00;99.90
11615;DHT22;5863;52.832;4.758;2023-04-01T13:50:01;11.00;99.90
11615;DHT22;5863;52.832;4.758;2023-04-01T13:52:47;11.00;99.90
11615;DHT22;5863;52.832;4.758;2023-04-01T13:55:26;11.00;99.90
11615;DHT22;5863;52.832;4.758;2023-04-01T13:58:13;10.90;99.90
11615;DHT22;5863;52.832;4.758;2023-04-01T14:00:55;11.00;99.90
11615;DHT22;5863;52.832;4.758;2023-04-01T14:03:50;11.00;99.90
11615;DHT22;5863;52.832;4.758;2023-04-01T14:06:27;11.00;99.90
11615;DHT22;5863;52.832;4.758;2023-04-01T14:09:14;11.00;99.90
11615;DHT22;5863;52.832;4.758;2023-04-01T14:11:52;10.90;99.90
11615;DHT22;5863;52.832;4.758;2023-04-01T14:14:27;10.90;99.90
11615;DHT22;5863;52.832;4.758;2023-04-01T14:17:10;10.80;99.90
11615;DHT22;5863;52.832;4.758;2023-04-01T14:20:02;10.80;99.90
11615;DHT22;5863;52.832;4.758;2023-04-01T14:22:37;10.70;99.90
11615;DHT22;5863;52.832;4.758;2023-04-01T14:25:25;10.70;99.90
11615;DHT22;5863;52.832;4.758;2023-04-01T14:28:03;10.70;99.90
11615;DHT22;5863;52.832;4.758;2023-04-01T14:30:43;10.80;99.90
11615;DHT22;5863;52.832;4.758;2023-04-01T14:33:23;10.80;99.90
11615;DHT22;5863;52.832;4.758;2023-04-01T14:36:10;10.90;99.90
11615;DHT22;5863;52.832;4.758;2023-04-01T14:38:48;10.90;99.90
11615;DHT22;5863;52.832;4.758;2023-04-01T14:41:30;10.80;99.90
11615;DHT22;5863;52.832;4.758;2023-04-01T14:44:11;10.80;99.90
11615;DHT22;5863;52.832;4.758;2023-04-01T14:47:12;10.80;99.90
11615;DHT22;5863;52.832;4.758;2023-04-01T14:49:42;10.70;99.90
11615;DHT22;5863;52.832;4.758;2023-04-01T14:52:14;10.70;99.90
11615;DHT22;5863;52.832;4.758;2023-04-01T14:54:44;10.70;99.90
11615;DHT22;5863;52.832;4.758;2023-04-01T14:57:16;10.70;99.90
11615;DHT22;5863;52.832;4.758;2023-04-01T14:59:51;10.70;99.90
11615;DHT22;5863;52.832;4.758;2023-04-01T15:02:33;10.50;99.90
11615;DHT22;5863;52.832;4.758;2023-04-01T15:05:11;10.40;99.90
11615;DHT22;5863;52.832;4.758;2023-04-01T15:16:44;10.30;99.90
11615;DHT22;5863;52.832;4.758;2023-04-01T15:19:20;10.30;99.90
11615;DHT22;5863;52.832;4.758;2023-04-01T15:22:18;10.30;99.90
11615;DHT22;5863;52.832;4.758;2023-04-01T15:25:03;10.30;99.90
11615;DHT22;5863;52.832;4.758;2023-04-01T15:27:37;10.20;99.90
11615;DHT22;5863;52.832;4.758;2023-04-01T15:30:29;10.20;99.90
11615;DHT22;5863;52.832;4.758;2023-04-01T15:33:11;10.30;99.90
11615;DHT22;5863;52.832;4.758;2023-04-01T15:35:46;10.30;99.90
11615;DHT22;5863;52.832;4.758;2023-04-01T15:38:24;10.30;99.90
11615;DHT22;5863;52.832;4.758;2023-04-01T15:40:55;10.40;99.90
11615;DHT22;5863;52.832;4.758;2023-04-01T15:43:35;10.20;99.90
11615;DHT22;5863;52.832;4.758;2023-04-01T15:46:28;10.20;99.90
11615;DHT22;5863;52.832;4.758;2023-04-01T15:49:14;10.20;99.90
11615;DHT22;5863;52.832;4.758;2023-04-01T15:51:53;10.10;99.90
11615;DHT22;5863;52.832;4.758;2023-04-01T15:57:16;10.10;99.90
11615;DHT22;5863;52.832;4.758;2023-04-01T16:00:09;10.00;99.90
11615;DHT22;5863;52.832;4.758;2023-04-01T16:02:44;10.00;99.90
11615;DHT22;5863;52.832;4.758;2023-04-01T16:05:25;9.90;99.90
11615;DHT22;5863;52.832;4.758;2023-04-01T16:08:09;9.80;99.90
11615;DHT22;5863;52.832;4.758;2023-04-01T16:10:57;9.80;99.90
11615;DHT22;5863;52.832;4.758;2023-04-01T16:13:37;9.80;99.90
11615;DHT22;5863;52.832;4.758;2023-04-01T16:16:16;9.80;99.90
11615;DHT22;5863;52.832;4.758;2023-04-01T16:18:59;9.70;99.90
11615;DHT22;5863;52.832;4.758;2023-04-01T16:21:36;9.70;99.90
11615;DHT22;5863;52.832;4.758;2023-04-01T16:24:13;9.60;99.90
11615;DHT22;5863;52.832;4.758;2023-04-01T16:26:49;9.60;99.90
11615;DHT22;5863;52.832;4.758;2023-04-01T16:29:24;9.60;99.90
11615;DHT22;5863;52.832;4.758;2023-04-01T16:31:57;9.60;99.90
11615;DHT22;5863;52.832;4.758;2023-04-01T16:34:30;9.60;99.90
11615;DHT22;5863;52.832;4.758;2023-04-01T16:37:05;9.60;99.90
11615;DHT22;5863;52.832;4.758;2023-04-01T16:39:37;9.50;99.90
11615;DHT22;5863;52.832;4.758;2023-04-01T16:42:19;9.40;99.90
11615;DHT22;5863;52.832;4.758;2023-04-01T16:44:52;9.40;99.90
11615;DHT22;5863;52.832;4.758;2023-04-01T16:47:22;9.40;99.90
11615;DHT22;5863;52.832;4.758;2023-04-01T16:49:59;9.40;99.90
11615;DHT22;5863;52.832;4.758;2023-04-01T16:52:43;9.40;99.90
11615;DHT22;5863;52.832;4.758;2023-04-01T16:55:16;9.40;99.90
11615;DHT22;5863;52.832;4.758;2023-04-01T16:57:48;9.40;99.90
11615;DHT22;5863;52.832;4.758;2023-04-01T17:00:24;9.40;99.90
11615;DHT22;5863;52.832;4.758;2023-04-01T17:03:01;9.40;99.90
11615;DHT22;5863;52.832;4.758;2023-04-01T17:05:40;9.30;99.90
11615;DHT22;5863;52.832;4.758;2023-04-01T17:08:17;9.30;99.90
11615;DHT22;5863;52.832;4.758;2023-04-01T17:10:52;9.30;99.90
11615;DHT22;5863;52.832;4.758;2023-04-01T17:13:40;9.30;99.90
11615;DHT22;5863;52.832;4.758;2023-04-01T17:16:23;9.30;99.90
11615;DHT22;5863;52.832;4.758;2023-04-01T17:18:59;9.30;99.90
11615;DHT22;5863;52.832;4.758;2023-04-01T17:21:43;9.20;99.90
11615;DHT22;5863;52.832;4.758;2023-04-01T17:24:25;9.20;99.90
11615;DHT22;5863;52.832;4.758;2023-04-01T17:27:01;9.20;99.90
11615;DHT22;5863;52.832;4.758;2023-04-01T17:29:46;9.10;99.90
11615;DHT22;5863;52.832;4.758;2023-04-01T17:32:35;9.10;99.90
11615;DHT22;5863;52.832;4.758;2023-04-01T17:35:11;9.00;99.90
11615;DHT22;5863;52.832;4.758;2023-04-01T17:37:49;9.00;99.90
11615;DHT22;5863;52.832;4.758;2023-04-01T17:40:30;9.00;99.90
11615;DHT22;5863;52.832;4.758;2023-04-01T17:43:05;9.00;99.90
11615;DHT22;5863;52.832;4.758;2023-04-01T17:45:41;9.00;99.90
11615;DHT22;5863;52.832;4.758;2023-04-01T17:48:18;8.90;99.90
11615;DHT22;5863;52.832;4.758;2023-04-01T17:50:58;8.90;99.90
11615;DHT22;5863;52.832;4.758;2023-04-01T17:53:35;8.90;99.90
11615;DHT22;5863;52.832;4.758;2023-04-01T17:56:12;8.90;99.90
11615;DHT22;5863;52.832;4.758;2023-04-01T17:58:45;8.90;99.90